Time;durP1;ratioP1;P1;durP2;ratioP2;P2;SDS_P1;SDS_P2;PMS_P1;PMS_P2;Temp;Humidity;BMP_temperature;BMP_pressure;BME280_temperature;BME280_humidity;BME280_pressure;Samples;Min_cycle;Max_cycle;Signal;HPM_P1;HPM_P2
2020/12/16 00:01:00;;;;;;;18.25;10.88;;;8.40;94.20;;;;;;2046970;28;20030;-82
2020/12/16 00:02:00;;;;;;;16.63;10.57;;;8.40;94.20;;;;;;2046582;29;20027;-82
2020/12/16 00:03:01;;;;;;;17.92;10.93;;;8.40;94.20;;;;;;2040111;29;20087;-82
2020/12/16 00:04:01;;;;;;;18.10;11.20;;;8.40;94.30;;;;;;2047394;28;20114;-81
2020/12/16 00:05:04;;;;;;;19.48;11.65;;;8.40;94.20;;;;;;2051100;28;20066;-81
2020/12/16 00:06:05;;;;;;;19.80;11.35;;;8.50;94.20;;;;;;2051609;28;20090;-81
2020/12/16 00:07:05;;;;;;;18.30;11.52;;;8.50;94.20;;;;;;2040189;29;20067;-82
2020/12/16 00:08:06;;;;;;;17.10;11.20;;;8.50;94.20;;;;;;2040549;29;20447;-82
2020/12/16 00:09:07;;;;;;;17.70;11.90;;;8.40;94.20;;;;;;2046735;29;20035;-82
2020/12/16 00:10:10;;;;;;;16.95;11.30;;;8.50;94.20;;;;;;2047825;28;20082;-82
2020/12/16 00:11:10;;;;;;;19.17;11.15;;;8.40;94.10;;;;;;2051224;28;20027;-82
2020/12/16 00:12:11;;;;;;;18.42;12.00;;;8.40;94.10;;;;;;2054985;28;20521;-82
2020/12/16 00:13:13;;;;;;;17.42;11.77;;;8.40;94.10;;;;;;2053779;28;20531;-81
2020/12/16 00:14:14;;;;;;;20.25;11.68;;;8.40;94.10;;;;;;2055102;28;20422;-82
2020/12/16 00:15:14;;;;;;;20.00;11.93;;;8.40;94.10;;;;;;2047810;28;20056;-81
2020/12/16 00:16:15;;;;;;;20.75;12.50;;;8.40;94.20;;;;;;2040520;29;20159;-81
2020/12/16 00:17:16;;;;;;;20.80;11.77;;;8.40;94.20;;;;;;2043527;28;20054;-82
2020/12/16 00:18:17;;;;;;;18.75;11.75;;;8.40;94.20;;;;;;2045060;29;20031;-81
2020/12/16 00:19:17;;;;;;;22.70;12.60;;;8.40;94.20;;;;;;2055277;28;20058;-82
2020/12/16 00:20:19;;;;;;;19.85;11.85;;;8.40;94.20;;;;;;2046211;29;20030;-81
2020/12/16 00:21:23;;;;;;;19.95;11.80;;;8.40;94.20;;;;;;2043872;28;20032;-81
2020/12/16 00:22:24;;;;;;;22.75;12.18;;;8.40;94.20;;;;;;2048948;28;20066;-81
2020/12/16 00:23:24;;;;;;;21.77;12.68;;;8.40;94.20;;;;;;2055647;28;20039;-81
2020/12/16 00:24:26;;;;;;;19.38;12.07;;;8.40;94.20;;;;;;2047345;29;20055;-81
2020/12/16 00:25:26;;;;;;;20.42;12.35;;;8.40;94.10;;;;;;2048405;28;20028;-81
2020/12/16 00:26:27;;;;;;;23.25;12.18;;;8.40;94.20;;;;;;2045042;28;20046;-81
2020/12/16 00:27:28;;;;;;;20.58;12.38;;;8.40;94.20;;;;;;2055542;28;20049;-81
2020/12/16 00:28:28;;;;;;;22.48;11.95;;;8.40;94.20;;;;;;2056483;28;20030;-82
2020/12/16 00:29:29;;;;;;;20.73;11.70;;;8.40;94.10;;;;;;2048080;28;20058;-81
2020/12/16 00:30:29;;;;;;;21.52;12.13;;;8.40;94.10;;;;;;2047860;28;20028;-81
2020/12/16 00:31:30;;;;;;;22.40;11.38;;;8.40;94.10;;;;;;2054245;28;20042;-81
2020/12/16 00:32:31;;;;;;;23.08;12.27;;;8.40;94.10;;;;;;2055803;28;20125;-82
2020/12/16 00:33:31;;;;;;;21.60;12.25;;;8.40;94.10;;;;;;2048558;28;20176;-81
2020/12/16 00:34:32;;;;;;;21.80;12.90;;;8.40;94.30;;;;;;2048290;28;20050;-82
2020/12/16 00:35:32;;;;;;;25.42;11.77;;;8.40;94.10;;;;;;2043460;28;20032;-82
2020/12/16 00:36:38;;;;;;;27.70;12.25;;;8.40;94.40;;;;;;2052747;28;20035;-81
2020/12/16 00:37:40;;;;;;;19.67;11.90;;;8.40;94.10;;;;;;2050857;28;20066;-82
2020/12/16 00:38:41;;;;;;;22.13;12.05;;;8.40;94.10;;;;;;2054104;28;20133;-81
2020/12/16 00:39:42;;;;;;;21.48;11.68;;;8.40;94.20;;;;;;2051239;28;20437;-81
2020/12/16 00:40:42;;;;;;;21.83;12.02;;;8.40;94.20;;;;;;2054710;28;20181;-82
2020/12/16 00:41:43;;;;;;;19.60;11.52;;;8.30;94.10;;;;;;2054714;28;20079;-82
2020/12/16 00:42:48;;;;;;;19.70;12.25;;;8.40;94.10;;;;;;2047857;29;20039;-82
2020/12/16 00:43:48;;;;;;;18.17;10.82;;;8.30;94.10;;;;;;2052903;28;20031;-82
2020/12/16 00:44:49;;;;;;;18.60;11.10;;;8.30;94.10;;;;;;2049903;28;20035;-82
2020/12/16 00:45:49;;;;;;;21.42;11.23;;;8.40;94.10;;;;;;2040798;29;20035;-82
2020/12/16 00:46:50;;;;;;;18.58;10.98;;;8.30;94.10;;;;;;2038886;29;20075;-81
2020/12/16 00:47:51;;;;;;;19.45;11.65;;;8.30;94.10;;;;;;2048558;28;20085;-82
2020/12/16 00:48:51;;;;;;;19.77;11.63;;;8.30;94.40;;;;;;2050195;28;20043;-82
2020/12/16 00:49:52;;;;;;;20.00;11.32;;;8.30;94.10;;;;;;2056373;28;20477;-81
2020/12/16 00:50:53;;;;;;;20.50;11.45;;;8.30;94.10;;;;;;2056416;28;20462;-82
2020/12/16 00:51:53;;;;;;;19.38;11.45;;;8.30;94.10;;;;;;2047528;29;20078;-82
2020/12/16 00:52:54;;;;;;;16.25;10.35;;;8.30;94.20;;;;;;2034567;29;20060;-82
2020/12/16 00:53:55;;;;;;;19.98;11.13;;;8.30;94.20;;;;;;2050777;28;20178;-82
2020/12/16 00:54:56;;;;;;;23.55;10.70;;;8.30;94.20;;;;;;2049396;28;20024;-82
2020/12/16 00:55:56;;;;;;;19.48;11.20;;;8.30;94.20;;;;;;2045695;29;20039;-82
2020/12/16 00:56:57;;;;;;;17.35;10.77;;;8.30;94.20;;;;;;2052935;28;20034;-82
2020/12/16 00:57:58;;;;;;;19.58;10.75;;;8.30;94.10;;;;;;2050627;28;20497;-82
2020/12/16 00:58:58;;;;;;;21.00;10.75;;;8.30;94.10;;;;;;2046244;29;20039;-82
2020/12/16 01:00:01;;;;;;;21.98;10.35;;;8.30;94.20;;;;;;2040206;29;20391;-82
2020/12/16 01:01:03;;;;;;;18.13;10.60;;;8.30;94.20;;;;;;2042558;28;20482;-82
2020/12/16 01:02:05;;;;;;;17.90;10.90;;;8.30;94.20;;;;;;2041431;29;20118;-82
2020/12/16 01:03:05;;;;;;;18.95;10.57;;;8.30;94.20;;;;;;2042821;28;20138;-82
2020/12/16 01:04:06;;;;;;;21.25;10.75;;;8.30;94.20;;;;;;2056039;28;20420;-82
2020/12/16 01:05:07;;;;;;;20.95;10.68;;;8.30;94.20;;;;;;2050458;28;20023;-82
2020/12/16 01:06:08;;;;;;;20.17;11.13;;;8.30;94.20;;;;;;2048515;28;20031;-82
2020/12/16 01:07:09;;;;;;;22.88;11.35;;;8.30;94.10;;;;;;2040134;29;20031;-82
2020/12/16 01:08:09;;;;;;;18.77;11.07;;;8.30;94.20;;;;;;2042629;28;20622;-82
2020/12/16 01:09:10;;;;;;;25.55;11.23;;;8.30;94.10;;;;;;2039426;28;20063;-81
2020/12/16 01:10:13;;;;;;;17.05;10.43;;;8.30;94.20;;;;;;2044516;28;20051;-82
2020/12/16 01:11:14;;;;;;;18.40;10.27;;;8.30;94.20;;;;;;2054115;28;20470;-82
2020/12/16 01:12:15;;;;;;;23.55;10.68;;;8.30;94.20;;;;;;2047688;29;20043;-82
2020/12/16 01:13:16;;;;;;;20.05;11.15;;;8.30;94.20;;;;;;2047364;28;20086;-82
2020/12/16 01:14:16;;;;;;;20.83;10.77;;;8.30;94.20;;;;;;2047887;28;20051;-82
2020/12/16 01:15:19;;;;;;;19.33;11.05;;;8.20;94.20;;;;;;2034927;29;20039;-82
2020/12/16 01:16:20;;;;;;;20.67;11.18;;;8.20;94.20;;;;;;2049391;28;20114;-82
2020/12/16 01:17:20;;;;;;;20.50;11.35;;;8.30;94.20;;;;;;2026501;29;20028;-82
2020/12/16 01:18:21;;;;;;;18.85;11.18;;;8.20;94.20;;;;;;2032494;29;20079;-82
2020/12/16 01:19:21;;;;;;;18.40;11.13;;;8.20;94.10;;;;;;2040259;29;20051;-82
2020/12/16 01:20:22;;;;;;;21.92;11.65;;;8.30;94.20;;;;;;2039561;29;20035;-82
2020/12/16 01:21:23;;;;;;;20.73;11.55;;;8.30;94.20;;;;;;2053165;28;20038;-83
2020/12/16 01:22:23;;;;;;;19.35;11.40;;;8.30;94.20;;;;;;2055841;28;20456;-84
2020/12/16 01:23:24;;;;;;;28.00;11.57;;;8.30;94.20;;;;;;2040023;29;20079;-83
2020/12/16 01:24:26;;;;;;;20.67;11.05;;;8.30;94.20;;;;;;2039186;29;20024;-83
2020/12/16 01:25:27;;;;;;;23.08;11.27;;;8.20;94.10;;;;;;2056095;28;20362;-83
2020/12/16 01:26:28;;;;;;;21.95;12.70;;;8.20;94.10;;;;;;2055608;28;20057;-82
2020/12/16 01:27:28;;;;;;;22.30;12.05;;;8.30;94.10;;;;;;2037845;29;20028;-83
2020/12/16 01:28:29;;;;;;;29.23;12.18;;;8.20;94.10;;;;;;2039824;29;20032;-83
2020/12/16 01:29:29;;;;;;;19.58;11.98;;;8.20;94.10;;;;;;2034012;29;20048;-83
2020/12/16 01:30:30;;;;;;;24.95;12.30;;;8.20;94.10;;;;;;2039723;29;20414;-83
2020/12/16 01:31:42;;;;;;;25.73;11.95;;;8.20;94.10;;;;;;2023558;29;20078;-83
2020/12/16 01:32:42;;;;;;;26.55;11.70;;;8.20;94.10;;;;;;2046535;28;20062;-83
2020/12/16 01:33:43;;;;;;;21.58;11.98;;;8.20;94.10;;;;;;2056395;28;20023;-82
2020/12/16 01:34:44;;;;;;;30.48;12.73;;;8.20;94.10;;;;;;2048591;28;20047;-83
2020/12/16 01:35:44;;;;;;;25.92;11.98;;;8.20;94.10;;;;;;2048414;28;20559;-83
2020/12/16 01:36:49;;;;;;;22.38;13.48;;;8.20;94.10;;;;;;2039972;28;20036;-83
2020/12/16 01:37:51;;;;;;;25.05;12.32;;;8.10;94.10;;;;;;2048888;28;20390;-83
2020/12/16 01:38:52;;;;;;;20.98;12.55;;;8.10;94.10;;;;;;2048416;28;20114;-83
2020/12/16 01:39:53;;;;;;;20.70;11.90;;;8.10;94.10;;;;;;2040824;28;20040;-83
2020/12/16 01:41:01;;;;;;;22.23;11.73;;;8.10;94.10;;;;;;2039822;29;20071;-83
2020/12/16 01:42:02;;;;;;;20.67;12.05;;;8.10;94.30;;;;;;2039977;29;20062;-82
2020/12/16 01:43:02;;;;;;;21.38;12.25;;;8.10;94.50;;;;;;2040751;29;20031;-82
2020/12/16 01:44:11;;;;;;;24.13;12.52;;;8.10;94.20;;;;;;2051760;28;20039;-83
2020/12/16 01:45:14;;;;;;;22.27;11.07;;;8.20;94.20;;;;;;2047814;28;20027;-83
2020/12/16 01:46:15;;;;;;;21.75;11.90;;;8.10;94.20;;;;;;2048185;28;20051;-83
2020/12/16 01:47:17;;;;;;;18.88;11.32;;;8.10;94.10;;;;;;2046657;29;20516;-83
2020/12/16 01:48:18;;;;;;;22.77;11.85;;;8.10;94.10;;;;;;2040177;28;20031;-83
2020/12/16 01:49:20;;;;;;;17.35;10.80;;;8.10;94.10;;;;;;2047591;29;20149;-83
2020/12/16 01:50:21;;;;;;;18.30;10.63;;;8.10;94.10;;;;;;2040072;29;20026;-83
2020/12/16 01:51:22;;;;;;;21.35;11.68;;;8.10;94.10;;;;;;2047851;28;20093;-84
2020/12/16 01:52:26;;;;;;;19.55;10.55;;;8.10;94.10;;;;;;2047457;28;20034;-82
2020/12/16 01:53:29;;;;;;;15.90;10.73;;;8.10;94.10;;;;;;2035215;28;20127;-83
2020/12/16 01:54:33;;;;;;;17.42;11.15;;;8.10;94.10;;;;;;2046439;28;20433;-83
2020/12/16 01:55:35;;;;;;;15.77;10.15;;;8.10;94.10;;;;;;2048249;28;20031;-83
2020/12/16 01:56:40;;;;;;;18.23;10.70;;;8.10;94.20;;;;;;2046021;28;20407;-82
2020/12/16 01:57:45;;;;;;;16.23;10.65;;;8.10;94.20;;;;;;2040477;29;20023;-83
2020/12/16 01:58:48;;;;;;;19.83;10.55;;;8.10;94.20;;;;;;2053255;28;20224;-83
2020/12/16 01:59:50;;;;;;;16.95;10.15;;;8.10;94.20;;;;;;2051381;28;20076;-83
2020/12/16 02:00:53;;;;;;;17.42;10.90;;;8.10;94.20;;;;;;2049961;28;20090;-83
2020/12/16 02:01:55;;;;;;;17.13;9.93;;;8.10;94.20;;;;;;2053692;28;20031;-83
2020/12/16 02:02:57;;;;;;;17.65;10.38;;;8.10;94.20;;;;;;2046188;28;20425;-82
2020/12/16 02:04:00;;;;;;;17.15;9.38;;;8.10;94.20;;;;;;2052783;28;20026;-83
2020/12/16 02:05:02;;;;;;;17.33;10.88;;;8.10;94.10;;;;;;2055224;28;20038;-82
2020/12/16 02:06:06;;;;;;;17.27;10.40;;;8.10;94.10;;;;;;2055851;28;20027;-82
2020/12/16 02:07:08;;;;;;;18.02;10.23;;;8.10;94.20;;;;;;2055536;28;20481;-83
2020/12/16 02:08:12;;;;;;;21.73;10.95;;;8.10;94.10;;;;;;2049916;28;20133;-83
2020/12/16 02:09:13;;;;;;;26.90;11.45;;;8.10;94.10;;;;;;2055509;28;20084;-83
2020/12/16 02:10:14;;;;;;;23.52;11.43;;;8.00;94.10;;;;;;2046389;28;20572;-83
2020/12/16 02:11:15;;;;;;;26.38;11.38;;;8.00;94.00;;;;;;2039097;29;20036;-83
2020/12/16 02:12:18;;;;;;;17.60;11.23;;;8.00;94.10;;;;;;2053454;28;20122;-82
2020/12/16 02:13:19;;;;;;;21.98;11.93;;;8.00;94.10;;;;;;2055378;28;20034;-82
2020/12/16 02:14:20;;;;;;;22.05;11.68;;;8.00;94.40;;;;;;2045686;28;20041;-83
2020/12/16 02:15:21;;;;;;;19.88;11.45;;;8.00;94.20;;;;;;2047149;28;20042;-82
2020/12/16 02:16:22;;;;;;;16.52;10.68;;;8.00;94.20;;;;;;2049313;28;20043;-84
2020/12/16 02:17:22;;;;;;;19.98;10.63;;;8.00;94.20;;;;;;2044004;29;20053;-83
2020/12/16 02:18:23;;;;;;;19.70;11.27;;;8.00;94.20;;;;;;2046560;28;20031;-82
2020/12/16 02:19:29;;;;;;;19.85;10.35;;;8.00;94.50;;;;;;2031744;29;20123;-83
2020/12/16 02:20:29;;;;;;;19.48;10.35;;;8.00;94.20;;;;;;2033154;29;20020;-83
2020/12/16 02:21:30;;;;;;;28.83;10.48;;;8.00;94.10;;;;;;2047152;28;20086;-83
2020/12/16 02:22:31;;;;;;;22.17;10.50;;;7.90;94.10;;;;;;2055711;28;20030;-83
2020/12/16 02:23:33;;;;;;;18.88;10.50;;;8.00;94.10;;;;;;2054779;28;20022;-83
2020/12/16 02:24:36;;;;;;;15.00;10.43;;;7.90;94.10;;;;;;2054988;28;20026;-83
2020/12/16 02:25:37;;;;;;;17.23;10.30;;;7.90;94.10;;;;;;2055315;28;20436;-83
2020/12/16 02:26:40;;;;;;;25.02;10.27;;;7.90;94.10;;;;;;2036129;29;20036;-83
2020/12/16 02:27:42;;;;;;;14.60;9.68;;;7.90;94.20;;;;;;2044227;28;20028;-83
2020/12/16 02:28:43;;;;;;;29.63;10.45;;;7.90;94.20;;;;;;2033209;29;20047;-83
2020/12/16 02:29:43;;;;;;;23.02;10.18;;;7.90;94.20;;;;;;2044258;29;20102;-82
2020/12/16 02:30:44;;;;;;;18.52;10.13;;;7.90;94.20;;;;;;2043427;29;20059;-83
2020/12/16 02:31:46;;;;;;;14.93;9.95;;;7.90;94.20;;;;;;2037639;29;20032;-83
2020/12/16 02:32:47;;;;;;;21.33;10.50;;;7.90;94.20;;;;;;2032113;29;20028;-83
2020/12/16 02:33:47;;;;;;;18.23;9.90;;;7.80;94.10;;;;;;2029260;29;20512;-83
2020/12/16 02:34:48;;;;;;;28.63;10.18;;;7.90;94.20;;;;;;2032604;29;20111;-83
2020/12/16 02:35:48;;;;;;;15.82;10.57;;;7.90;94.20;;;;;;2043823;29;20102;-83
2020/12/16 02:36:49;;;;;;;16.90;10.25;;;7.80;94.10;;;;;;2047690;29;20030;-83
2020/12/16 02:37:50;;;;;;;18.02;9.82;;;7.90;94.20;;;;;;2047474;28;20035;-83
2020/12/16 02:38:51;;;;;;;21.25;10.75;;;7.80;94.20;;;;;;2050619;28;20377;-83
2020/12/16 02:39:53;;;;;;;22.27;10.38;;;7.80;94.20;;;;;;2040108;28;20023;-83
2020/12/16 02:40:53;;;;;;;17.90;10.10;;;7.80;94.20;;;;;;2039491;28;20489;-83
2020/12/16 02:42:05;;;;;;;23.67;10.73;;;7.80;94.10;;;;;;2045727;28;20035;-83
2020/12/16 02:43:05;;;;;;;15.60;9.93;;;7.80;94.10;;;;;;2050365;28;20083;-82
2020/12/16 02:44:06;;;;;;;22.38;10.93;;;7.80;94.10;;;;;;2048325;28;20024;-83
2020/12/16 02:45:07;;;;;;;19.52;10.07;;;7.80;94.10;;;;;;2039256;29;20109;-83
2020/12/16 02:46:07;;;;;;;17.30;10.68;;;7.80;94.10;;;;;;2045084;28;20034;-83
2020/12/16 02:47:08;;;;;;;15.80;10.85;;;7.80;94.10;;;;;;2051637;28;20027;-83
2020/12/16 02:48:08;;;;;;;18.65;11.27;;;7.80;94.20;;;;;;2038691;29;20837;-83
2020/12/16 02:49:09;;;;;;;19.85;10.90;;;7.80;94.20;;;;;;2033232;29;20046;-83
2020/12/16 02:50:10;;;;;;;25.98;11.40;;;7.80;94.20;;;;;;2033748;29;20029;-83
2020/12/16 02:51:10;;;;;;;39.72;12.20;;;7.80;94.20;;;;;;2040413;29;20030;-83
2020/12/16 02:52:12;;;;;;;34.78;13.10;;;7.80;94.10;;;;;;2035874;29;20387;-84
2020/12/16 02:53:12;;;;;;;26.05;12.38;;;7.70;94.10;;;;;;2056749;28;20035;-83
2020/12/16 02:54:13;;;;;;;25.30;11.68;;;7.70;94.40;;;;;;2048421;28;20027;-83
2020/12/16 02:55:13;;;;;;;42.45;12.73;;;7.70;94.20;;;;;;2048968;28;20094;-83
2020/12/16 02:56:14;;;;;;;43.13;12.95;;;7.70;94.10;;;;;;2044780;28;20031;-83
2020/12/16 02:57:15;;;;;;;62.30;14.32;;;7.60;94.10;;;;;;2047881;28;20039;-82
2020/12/16 02:58:15;;;;;;;29.25;12.75;;;7.60;94.10;;;;;;2048205;28;20034;-83
2020/12/16 02:59:19;;;;;;;27.50;12.63;;;7.60;94.10;;;;;;2043666;29;20578;-82
2020/12/16 03:00:20;;;;;;;23.83;12.50;;;7.50;94.10;;;;;;2049528;28;20019;-83
2020/12/16 03:01:21;;;;;;;19.52;11.32;;;7.50;94.20;;;;;;2054223;28;20081;-83
2020/12/16 03:02:21;;;;;;;34.28;12.30;;;7.50;94.20;;;;;;2041384;28;20584;-83
2020/12/16 03:03:22;;;;;;;29.08;12.23;;;7.50;94.30;;;;;;2039240;29;20536;-83
2020/12/16 03:04:24;;;;;;;20.42;11.52;;;7.50;94.30;;;;;;2036869;29;20678;-83
2020/12/16 03:05:25;;;;;;;20.05;11.35;;;7.50;94.30;;;;;;2047289;28;20101;-82
2020/12/16 03:06:25;;;;;;;19.25;10.82;;;7.50;94.30;;;;;;2039490;29;20391;-82
2020/12/16 03:07:26;;;;;;;16.40;11.20;;;7.50;94.30;;;;;;2048587;28;20035;-83
2020/12/16 03:08:27;;;;;;;28.75;11.57;;;7.50;94.30;;;;;;2048060;28;20027;-82
2020/12/16 03:09:27;;;;;;;17.98;10.98;;;7.50;94.30;;;;;;2031737;29;20036;-82
2020/12/16 03:10:28;;;;;;;21.65;11.23;;;7.50;94.30;;;;;;2039298;29;20110;-83
2020/12/16 03:11:28;;;;;;;21.98;10.82;;;7.50;94.30;;;;;;2041889;29;20059;-82
2020/12/16 03:12:29;;;;;;;19.38;10.07;;;7.50;94.30;;;;;;2050520;29;20040;-84
2020/12/16 03:13:30;;;;;;;18.40;10.48;;;7.50;94.30;;;;;;2049987;29;20086;-82
2020/12/16 03:14:30;;;;;;;14.68;10.13;;;7.50;94.30;;;;;;2066033;28;20031;-82
2020/12/16 03:15:32;;;;;;;20.77;10.10;;;7.50;94.30;;;;;;2063934;28;20152;-82
2020/12/16 03:16:32;;;;;;;13.18;9.90;;;7.50;94.30;;;;;;2054539;28;20040;-83
2020/12/16 03:17:33;;;;;;;17.48;9.98;;;7.50;94.30;;;;;;2058358;28;20035;-82
2020/12/16 03:18:34;;;;;;;31.13;10.90;;;7.50;94.30;;;;;;2057727;28;20046;-82
2020/12/16 03:19:34;;;;;;;19.13;11.02;;;7.50;94.20;;;;;;2049397;28;20043;-82
2020/12/16 03:20:35;;;;;;;16.15;11.07;;;7.50;94.20;;;;;;2050826;28;20042;-83
2020/12/16 03:21:36;;;;;;;25.15;11.65;;;7.50;94.20;;;;;;2054891;28;20035;-82
2020/12/16 03:22:36;;;;;;;21.77;11.15;;;7.50;94.20;;;;;;2057664;28;20075;-81
2020/12/16 03:23:37;;;;;;;16.10;10.63;;;7.40;94.10;;;;;;2050894;28;20022;-83
2020/12/16 03:24:38;;;;;;;14.13;9.82;;;7.40;94.20;;;;;;2050800;29;20047;-82
2020/12/16 03:25:38;;;;;;;14.13;9.82;;;7.40;94.20;;;;;;2058465;28;20045;-83
2020/12/16 03:26:40;;;;;;;15.88;9.48;;;7.40;94.20;;;;;;2040244;29;20138;-82
2020/12/16 03:27:41;;;;;;;17.90;9.75;;;7.40;94.40;;;;;;2044784;28;20043;-82
2020/12/16 03:28:41;;;;;;;17.52;9.32;;;7.40;94.20;;;;;;2032643;29;20123;-83
2020/12/16 03:29:42;;;;;;;17.98;9.73;;;7.40;94.20;;;;;;2032426;29;20058;-83
2020/12/16 03:30:43;;;;;;;18.60;10.60;;;7.40;94.20;;;;;;2040952;29;20036;-83
2020/12/16 03:31:44;;;;;;;14.88;9.38;;;7.40;94.20;;;;;;2041036;28;20425;-83
2020/12/16 03:32:44;;;;;;;19.48;9.93;;;7.40;94.20;;;;;;2047366;28;20031;-83
2020/12/16 03:33:46;;;;;;;15.65;9.73;;;7.40;94.20;;;;;;2041407;28;20394;-83
2020/12/16 03:34:47;;;;;;;16.30;9.63;;;7.40;94.20;;;;;;2048463;28;20165;-83
2020/12/16 03:35:47;;;;;;;14.15;9.13;;;7.40;94.20;;;;;;2040924;29;20122;-83
2020/12/16 03:36:48;;;;;;;20.08;9.88;;;7.40;94.50;;;;;;2041180;29;20382;-82
2020/12/16 03:37:49;;;;;;;31.55;11.02;;;7.40;94.20;;;;;;2041547;29;20031;-83
2020/12/16 03:38:50;;;;;;;17.85;10.05;;;7.40;94.20;;;;;;2043591;29;20027;-82
2020/12/16 03:39:50;;;;;;;13.63;9.95;;;7.40;94.20;;;;;;2048745;28;20062;-83
2020/12/16 03:40:51;;;;;;;13.40;9.68;;;7.40;94.20;;;;;;2055344;28;20041;-83
2020/12/16 03:41:51;;;;;;;13.95;9.55;;;7.40;94.20;;;;;;2056456;28;20426;-83
2020/12/16 03:42:52;;;;;;;15.80;9.55;;;7.40;94.30;;;;;;2053515;28;20050;-82
2020/12/16 03:43:53;;;;;;;16.88;10.10;;;7.40;94.30;;;;;;2060090;28;20094;-83
2020/12/16 03:44:53;;;;;;;15.93;9.60;;;7.40;94.30;;;;;;2059180;28;20015;-81
2020/12/16 03:45:54;;;;;;;16.45;9.55;;;7.40;94.30;;;;;;2046653;28;20043;-83
2020/12/16 03:46:55;;;;;;;12.88;9.48;;;7.40;94.20;;;;;;2050918;29;20062;-82
2020/12/16 03:47:55;;;;;;;14.75;9.30;;;7.40;94.20;;;;;;2044116;29;20012;-83
2020/12/16 03:48:56;;;;;;;15.63;9.35;;;7.40;94.20;;;;;;2040439;29;20032;-83
2020/12/16 03:49:56;;;;;;;13.77;9.45;;;7.40;94.20;;;;;;2049008;29;20030;-83
2020/12/16 03:50:57;;;;;;;16.02;9.73;;;7.40;94.20;;;;;;2040190;29;20032;-83
2020/12/16 03:51:58;;;;;;;14.10;8.90;;;7.40;94.20;;;;;;2040455;29;20060;-83
2020/12/16 03:52:58;;;;;;;12.80;9.18;;;7.40;94.20;;;;;;2044178;28;20443;-82
2020/12/16 03:53:59;;;;;;;15.15;8.80;;;7.40;94.20;;;;;;2048034;29;20070;-83
2020/12/16 03:54:59;;;;;;;12.85;8.85;;;7.40;94.20;;;;;;2040604;28;20035;-82
2020/12/16 03:56:07;;;;;;;14.13;8.90;;;7.40;94.20;;;;;;2040259;29;20035;-83
2020/12/16 03:57:08;;;;;;;15.43;8.82;;;7.40;94.20;;;;;;2047875;28;20118;-82
2020/12/16 03:58:09;;;;;;;20.67;9.63;;;7.30;94.20;;;;;;2040361;29;20090;-83
2020/12/16 03:59:09;;;;;;;12.13;8.55;;;7.40;94.20;;;;;;2039359;29;20036;-82
2020/12/16 04:00:10;;;;;;;14.10;8.52;;;7.30;94.20;;;;;;2030114;29;20159;-83
2020/12/16 04:01:13;;;;;;;12.73;8.52;;;7.40;94.20;;;;;;2031784;29;20352;-83
2020/12/16 04:02:14;;;;;;;12.80;8.77;;;7.40;94.20;;;;;;2049181;28;20039;-83
2020/12/16 04:03:14;;;;;;;21.92;8.80;;;7.30;94.20;;;;;;2047450;28;20077;-83
2020/12/16 04:04:15;;;;;;;16.00;8.30;;;7.30;94.20;;;;;;2040273;29;20078;-83
2020/12/16 04:05:16;;;;;;;19.00;8.90;;;7.40;94.20;;;;;;2041988;29;20042;-83
2020/12/16 04:06:16;;;;;;;17.02;8.40;;;7.30;94.20;;;;;;2038720;29;20039;-83
2020/12/16 04:07:17;;;;;;;11.43;8.75;;;7.40;94.20;;;;;;2035133;29;20071;-83
2020/12/16 04:08:17;;;;;;;10.63;8.00;;;7.30;94.20;;;;;;2032752;29;20071;-83
2020/12/16 04:09:18;;;;;;;12.30;8.18;;;7.30;94.20;;;;;;2030623;29;20044;-83
2020/12/16 04:10:19;;;;;;;13.93;8.10;;;7.30;94.20;;;;;;2032877;29;20436;-82
2020/12/16 04:11:19;;;;;;;11.38;8.23;;;7.30;94.20;;;;;;2048410;28;20445;-84
2020/12/16 04:12:20;;;;;;;18.38;8.57;;;7.30;94.20;;;;;;2034480;29;20402;-83
2020/12/16 04:13:20;;;;;;;11.90;8.73;;;7.30;94.20;;;;;;2038293;29;20032;-83
2020/12/16 04:14:22;;;;;;;10.93;8.35;;;7.30;94.20;;;;;;2046989;29;20046;-84
2020/12/16 04:15:22;;;;;;;25.38;8.57;;;7.30;94.20;;;;;;2033085;29;20050;-83
2020/12/16 04:16:23;;;;;;;14.32;8.30;;;7.30;94.20;;;;;;2040170;29;20054;-83
2020/12/16 04:17:24;;;;;;;11.90;8.52;;;7.30;94.10;;;;;;2039684;29;20039;-83
2020/12/16 04:18:25;;;;;;;11.43;9.07;;;7.30;94.10;;;;;;2032826;29;20118;-83
2020/12/16 04:19:25;;;;;;;14.55;7.85;;;7.30;94.10;;;;;;2032524;29;20142;-83
2020/12/16 04:20:28;;;;;;;33.63;9.80;;;7.20;94.10;;;;;;2039508;29;20485;-83
2020/12/16 04:21:29;;;;;;;15.20;8.85;;;7.20;94.20;;;;;;2044900;28;20151;-82
2020/12/16 04:22:29;;;;;;;12.68;8.13;;;7.20;94.10;;;;;;2048315;28;20129;-83
2020/12/16 04:23:30;;;;;;;24.05;9.65;;;7.20;94.40;;;;;;2031955;29;20494;-82
2020/12/16 04:24:30;;;;;;;11.70;8.57;;;7.20;94.10;;;;;;2032872;29;20079;-84
2020/12/16 04:25:33;;;;;;;14.05;8.25;;;7.20;94.10;;;;;;2030501;29;20035;-82
2020/12/16 04:26:33;;;;;;;23.63;9.15;;;7.10;94.20;;;;;;2039223;28;20032;-82
2020/12/16 04:27:34;;;;;;;23.42;9.23;;;7.20;94.20;;;;;;2054075;28;20113;-82
2020/12/16 04:28:35;;;;;;;24.65;10.65;;;7.10;94.20;;;;;;2055918;28;20492;-82
2020/12/16 04:29:37;;;;;;;45.38;10.88;;;7.10;94.20;;;;;;2051646;28;20158;-83
2020/12/16 04:30:38;;;;;;;15.80;9.63;;;7.10;94.20;;;;;;2051681;28;20358;-83
2020/12/16 04:31:39;;;;;;;12.35;8.90;;;7.10;94.20;;;;;;2055372;28;20119;-83
2020/12/16 04:32:40;;;;;;;13.70;8.73;;;7.10;94.20;;;;;;2047658;29;20463;-84
2020/12/16 04:33:40;;;;;;;17.50;9.38;;;7.10;94.30;;;;;;2039854;28;20035;-82
2020/12/16 04:34:41;;;;;;;13.80;9.07;;;7.10;94.30;;;;;;2045283;29;20031;-83
2020/12/16 04:35:42;;;;;;;16.65;8.80;;;7.00;94.30;;;;;;2049929;28;20045;-83
2020/12/16 04:36:50;;;;;;;14.30;8.50;;;7.00;94.30;;;;;;2048576;28;20470;-83
2020/12/16 04:37:52;;;;;;;16.42;8.05;;;7.00;94.30;;;;;;2049928;28;20375;-83
2020/12/16 04:38:53;;;;;;;18.08;8.32;;;7.00;94.30;;;;;;2048247;28;20019;-83
2020/12/16 04:39:54;;;;;;;11.73;8.25;;;7.00;94.30;;;;;;2048781;28;20043;-83
2020/12/16 04:40:56;;;;;;;14.65;8.18;;;7.10;94.30;;;;;;2055733;28;20033;-82
2020/12/16 04:41:56;;;;;;;11.80;8.57;;;7.00;94.30;;;;;;2052470;28;20031;-82
2020/12/16 04:43:06;;;;;;;12.45;8.73;;;7.00;94.30;;;;;;2052144;28;20110;-82
2020/12/16 04:44:09;;;;;;;15.35;8.40;;;7.00;94.30;;;;;;2056251;28;20046;-83
2020/12/16 04:45:11;;;;;;;11.27;8.48;;;7.00;94.30;;;;;;2056198;28;20015;-83
2020/12/16 04:46:14;;;;;;;16.73;8.73;;;7.00;94.30;;;;;;2055088;28;20077;-83
2020/12/16 04:47:16;;;;;;;14.13;8.73;;;7.00;94.30;;;;;;2055895;28;20581;-84
2020/12/16 04:48:17;;;;;;;16.52;8.50;;;7.10;94.30;;;;;;2040354;29;20545;-83
2020/12/16 04:49:18;;;;;;;12.43;8.75;;;7.00;94.30;;;;;;2038811;29;20051;-82
2020/12/16 04:50:19;;;;;;;18.92;9.10;;;7.00;94.30;;;;;;2048227;29;20049;-83
2020/12/16 04:51:19;;;;;;;16.88;8.85;;;7.00;94.30;;;;;;2052636;28;20047;-83
2020/12/16 04:52:25;;;;;;;26.13;9.90;;;7.10;94.30;;;;;;2048300;28;20130;-82
2020/12/16 04:53:27;;;;;;;21.23;9.18;;;7.00;94.30;;;;;;2050629;28;20173;-82
2020/12/16 04:54:28;;;;;;;14.27;9.77;;;7.10;94.30;;;;;;2055686;28;20030;-83
2020/12/16 04:55:30;;;;;;;15.57;8.82;;;7.10;94.30;;;;;;2055615;28;20113;-83
2020/12/16 04:56:35;;;;;;;24.00;10.23;;;7.00;94.20;;;;;;2051440;28;20106;-83
2020/12/16 04:57:36;;;;;;;21.25;10.50;;;7.00;94.20;;;;;;2053451;28;20062;-82
2020/12/16 04:58:37;;;;;;;14.73;9.73;;;7.00;94.20;;;;;;2047305;28;20038;-82
2020/12/16 04:59:38;;;;;;;14.23;9.40;;;7.00;94.30;;;;;;2037567;29;20032;-83
2020/12/16 05:00:39;;;;;;;13.60;9.75;;;7.00;94.30;;;;;;2037053;29;20109;-83
2020/12/16 05:01:41;;;;;;;22.38;11.00;;;7.10;94.30;;;;;;2053433;28;20031;-82
2020/12/16 05:02:59;;;;;;;15.35;9.85;;;7.00;94.50;;;;;;2042725;29;20035;-82
2020/12/16 05:03:59;;;;;;;12.85;9.40;;;7.10;94.30;;;;;;2039254;28;20426;-83
2020/12/16 05:05:01;;;;;;;19.27;10.48;;;7.10;94.30;;;;;;2047409;28;20055;-82
2020/12/16 05:06:02;;;;;;;17.02;9.90;;;7.10;94.30;;;;;;2054100;28;20019;-83
2020/12/16 05:07:02;;;;;;;15.02;9.55;;;7.00;94.30;;;;;;2050338;28;20445;-83
2020/12/16 05:08:14;;;;;;;17.98;10.02;;;7.00;94.30;;;;;;2045382;29;20561;-83
2020/12/16 05:09:16;;;;;;;18.33;10.25;;;7.10;94.30;;;;;;2053586;28;20037;-83
2020/12/16 05:10:30;;;;;;;14.93;9.48;;;7.10;94.30;;;;;;2048092;29;20027;-83
2020/12/16 05:11:51;;;;;;;15.15;10.70;;;7.10;94.30;;;;;;2040929;28;20506;-83
2020/12/16 05:13:02;;;;;;;13.73;9.63;;;7.10;94.30;;;;;;2052957;28;20027;-83
2020/12/16 05:14:06;;;;;;;;;;;7.00;94.20;;;;;;2052509;28;20189;-83
2020/12/16 05:15:21;;;;;;;22.90;10.65;;;7.00;94.20;;;;;;2055892;28;20327;-83
2020/12/16 05:16:22;;;;;;;17.75;9.73;;;7.00;94.20;;;;;;2055736;28;20109;-83
2020/12/16 05:17:23;;;;;;;30.95;11.10;;;7.00;94.20;;;;;;2039869;29;20032;-83
2020/12/16 05:18:27;;;;;;;15.88;10.98;;;7.00;94.20;;;;;;2048184;28;20035;-83